createdAt,value
2022-12-15T00:00:07.183Z,100.00
2022-12-15T00:03:28.385Z,100.00
2022-12-15T00:06:50.556Z,100.00
2022-12-15T00:10:11.663Z,100.00
2022-12-15T00:13:33.195Z,100.00
2022-12-15T00:16:54.492Z,100.00
2022-12-15T00:20:15.772Z,100.00
2022-12-15T00:23:37.026Z,100.00
2022-12-15T00:26:58.549Z,100.00
2022-12-15T00:30:20.028Z,100.00
2022-12-15T00:33:41.469Z,100.00
2022-12-15T00:37:02.246Z,100.00
2022-12-15T00:40:06.979Z,100.00
2022-12-15T00:43:12.227Z,100.00
2022-12-15T00:46:33.887Z,100.00
2022-12-15T00:49:54.973Z,100.00
2022-12-15T00:53:16.309Z,100.00
2022-12-15T00:56:37.334Z,100.00
2022-12-15T00:59:58.798Z,100.00
2022-12-15T01:03:19.946Z,100.00
2022-12-15T01:06:41.663Z,100.00
2022-12-15T01:10:02.540Z,100.00
2022-12-15T01:13:24.440Z,100.00
2022-12-15T01:16:45.621Z,100.00
2022-12-15T01:20:07.139Z,100.00
2022-12-15T01:23:09.579Z,100.00
2022-12-15T01:26:12.419Z,100.00
2022-12-15T01:29:14.956Z,100.00
2022-12-15T01:32:17.843Z,100.00
2022-12-15T01:35:21.118Z,100.00
2022-12-15T01:38:26.424Z,100.00
2022-12-15T01:41:29.271Z,100.00
2022-12-15T01:44:32.123Z,100.00
2022-12-15T01:47:34.652Z,100.00
2022-12-15T01:50:41.465Z,100.00
2022-12-15T01:53:50.762Z,100.00
2022-12-15T01:56:57.277Z,100.00
2022-12-15T02:00:02.169Z,100.00
2022-12-15T02:03:05.440Z,100.00
2022-12-15T02:06:09.387Z,100.00
2022-12-15T02:09:12.129Z,100.00
2022-12-15T02:12:33.051Z,100.00
2022-12-15T02:15:46.317Z,100.00
2022-12-15T02:19:09.648Z,100.00
2022-12-15T02:22:45.078Z,100.00
2022-12-15T02:26:25.456Z,100.00
2022-12-15T02:29:46.205Z,100.00
2022-12-15T02:33:04.126Z,100.00
2022-12-15T02:36:16.891Z,100.00
2022-12-15T02:39:19.627Z,100.00
2022-12-15T02:42:22.835Z,100.00
2022-12-15T02:45:34.743Z,100.00
2022-12-15T02:48:50.379Z,100.00
2022-12-15T02:52:17.981Z,100.00
2022-12-15T02:55:28.082Z,100.00
2022-12-15T02:58:53.100Z,100.00
2022-12-15T03:01:59.856Z,100.00
2022-12-15T03:05:03.007Z,100.00
2022-12-15T03:08:05.552Z,100.00
2022-12-15T03:11:08.324Z,100.00
2022-12-15T03:14:10.849Z,100.00
2022-12-15T03:17:13.588Z,100.00
2022-12-15T03:20:16.402Z,100.00
2022-12-15T03:23:19.653Z,100.00
2022-12-15T03:26:22.166Z,100.00
2022-12-15T03:29:24.870Z,100.00
2022-12-15T03:32:28.378Z,100.00
2022-12-15T03:35:31.323Z,100.00
2022-12-15T03:38:33.847Z,100.00
2022-12-15T03:41:36.705Z,100.00
2022-12-15T03:44:44.864Z,100.00
2022-12-15T03:47:48.386Z,100.00
2022-12-15T03:50:50.998Z,100.00
2022-12-15T03:53:54.253Z,100.00
2022-12-15T03:56:56.732Z,100.00
2022-12-15T03:59:59.450Z,100.00
2022-12-15T04:03:02.117Z,100.00
2022-12-15T04:06:05.217Z,100.00
2022-12-15T04:09:07.705Z,100.00
2022-12-15T04:12:13.895Z,100.00
2022-12-15T04:15:16.549Z,100.00
2022-12-15T04:18:19.273Z,100.00
2022-12-15T04:21:22.643Z,100.00
2022-12-15T04:24:44.117Z,100.00
2022-12-15T04:28:05.169Z,100.00
2022-12-15T04:31:29.048Z,100.00
2022-12-15T04:34:50.290Z,100.00
2022-12-15T04:38:11.769Z,100.00
2022-12-15T04:41:33.361Z,100.00
2022-12-15T04:44:54.707Z,100.00
2022-12-15T04:48:15.485Z,100.00
2022-12-15T04:51:36.983Z,100.00
2022-12-15T04:54:58.209Z,100.00
2022-12-15T04:58:26.876Z,100.00
2022-12-15T05:01:48.378Z,100.00
2022-12-15T05:05:10.806Z,100.00
2022-12-15T05:08:31.883Z,100.00
2022-12-15T05:11:53.536Z,100.00
2022-12-15T05:15:14.815Z,100.00
2022-12-15T05:18:36.322Z,100.00
2022-12-15T05:21:57.526Z,100.00
2022-12-15T05:25:18.903Z,100.00
2022-12-15T05:28:40.005Z,100.00
2022-12-15T05:31:58.534Z,100.00
2022-12-15T05:35:01.496Z,100.00
2022-12-15T05:38:05.781Z,100.00
2022-12-15T05:41:08.646Z,100.00
2022-12-15T05:44:11.580Z,100.00
2022-12-15T05:47:14.113Z,100.00
2022-12-15T05:50:16.934Z,100.00
2022-12-15T05:53:19.415Z,100.00
2022-12-15T05:56:22.307Z,100.00
2022-12-15T05:59:24.908Z,100.00
2022-12-15T06:02:30.886Z,100.00
2022-12-15T06:05:33.710Z,100.00
2022-12-15T06:08:38.309Z,100.00
2022-12-15T06:11:41.191Z,100.00
2022-12-15T06:14:43.704Z,100.00
2022-12-15T06:17:49.711Z,100.00
2022-12-15T06:21:04.287Z,100.00
2022-12-15T06:24:08.014Z,100.00
2022-12-15T06:27:10.690Z,100.00
2022-12-15T06:30:14.106Z,100.00
2022-12-15T06:33:16.614Z,100.00
2022-12-15T06:36:19.859Z,100.00
2022-12-15T06:39:22.477Z,100.00
2022-12-15T06:42:25.347Z,100.00
2022-12-15T06:45:27.884Z,100.00
2022-12-15T06:48:31.189Z,100.00
2022-12-15T06:51:33.818Z,100.00
2022-12-15T06:54:36.674Z,100.00
2022-12-15T06:57:39.244Z,100.00
2022-12-15T07:00:43.288Z,100.00
2022-12-15T07:03:46.137Z,100.00
2022-12-15T07:06:49.328Z,100.00
2022-12-15T07:09:52.156Z,100.00
2022-12-15T07:12:56.905Z,100.00
2022-12-15T07:16:00.664Z,100.00
2022-12-15T07:19:03.746Z,100.00
2022-12-15T07:22:06.359Z,100.00
2022-12-15T07:25:09.748Z,100.00
2022-12-15T07:28:12.443Z,100.00
2022-12-15T07:31:15.763Z,100.00
2022-12-15T07:34:18.524Z,100.00
2022-12-15T07:37:21.468Z,100.00
2022-12-15T07:40:24.076Z,100.00
2022-12-15T07:43:28.579Z,100.00
2022-12-15T07:46:31.519Z,100.00
2022-12-15T07:49:34.643Z,100.00
2022-12-15T07:52:37.485Z,100.00
2022-12-15T07:56:05.525Z,100.00
2022-12-15T07:59:04.962Z,100.00
2022-12-15T08:02:10.452Z,100.00
2022-12-15T08:05:13.593Z,100.00
2022-12-15T08:08:16.499Z,100.00
2022-12-15T08:11:22.223Z,100.00
2022-12-15T08:14:25.027Z,100.00
2022-12-15T08:17:28.037Z,100.00
2022-12-15T08:20:31.311Z,100.00
2022-12-15T08:23:34.903Z,100.00
2022-12-15T08:26:38.288Z,100.00
2022-12-15T08:29:51.157Z,100.00
2022-12-15T08:32:54.601Z,100.00
2022-12-15T08:35:59.263Z,100.00
2022-12-15T08:39:02.875Z,100.00
2022-12-15T08:42:06.282Z,100.00
2022-12-15T08:45:11.080Z,100.00
2022-12-15T08:48:13.959Z,100.00
2022-12-15T08:51:17.269Z,100.00
2022-12-15T08:54:21.344Z,100.00
2022-12-15T08:57:24.049Z,100.00
2022-12-15T09:00:26.994Z,100.00
2022-12-15T09:03:30.108Z,100.00
2022-12-15T09:06:35.584Z,100.00
2022-12-15T09:09:38.416Z,100.00
2022-12-15T09:12:41.767Z,100.00
2022-12-15T09:16:08.887Z,100.00
2022-12-15T09:19:09.483Z,100.00
2022-12-15T09:22:12.133Z,100.00
2022-12-15T09:25:14.953Z,100.00
2022-12-15T09:28:17.598Z,100.00
2022-12-15T09:31:40.902Z,99.86
2022-12-15T09:34:43.437Z,99.98
2022-12-15T09:37:51.622Z,100.00
2022-12-15T09:40:54.534Z,100.00
2022-12-15T09:44:02.981Z,100.00
2022-12-15T09:47:12.139Z,100.00
2022-12-15T09:50:15.719Z,100.00
2022-12-15T09:53:53.011Z,100.00
2022-12-15T09:56:50.282Z,100.00
2022-12-15T10:00:22.180Z,100.00
2022-12-15T10:03:49.548Z,100.00
2022-12-15T10:07:00.628Z,99.24
2022-12-15T10:10:11.493Z,99.79
2022-12-15T10:13:20.673Z,98.82
2022-12-15T10:16:31.931Z,98.82
2022-12-15T10:19:41.875Z,98.71
2022-12-15T10:22:44.861Z,97.97
2022-12-15T10:26:01.633Z,98.22
2022-12-15T10:29:18.910Z,98.12
2022-12-15T10:32:59.993Z,98.42
2022-12-15T10:36:09.167Z,98.17
2022-12-15T10:39:14.437Z,98.12
2022-12-15T10:42:23.262Z,98.57
2022-12-15T10:45:37.071Z,99.17
2022-12-15T10:48:41.293Z,99.35
2022-12-15T10:51:45.624Z,99.31
2022-12-15T10:54:50.748Z,99.23
2022-12-15T10:58:01.163Z,98.50
2022-12-15T11:01:14.747Z,98.55
2022-12-15T11:04:28.942Z,99.48
2022-12-15T11:07:35.615Z,99.06
2022-12-15T11:11:17.248Z,98.71
2022-12-15T11:14:26.155Z,98.74
2022-12-15T11:17:38.180Z,98.71
2022-12-15T11:20:44.896Z,98.87
2022-12-15T11:24:27.771Z,99.15
2022-12-15T11:27:36.447Z,98.84
2022-12-15T11:30:44.126Z,98.63
2022-12-15T11:33:46.969Z,98.58
2022-12-15T11:37:17.876Z,99.30
2022-12-15T11:40:39.801Z,98.69
2022-12-15T11:44:04.337Z,98.61
2022-12-15T11:47:20.649Z,98.49
2022-12-15T11:50:31.354Z,99.11
2022-12-15T11:53:54.447Z,99.30
2022-12-15T11:57:04.290Z,99.47
2022-12-15T12:00:23.448Z,99.58
2022-12-15T12:03:53.486Z,99.98
2022-12-15T12:07:02.156Z,100.00
2022-12-15T12:10:32.653Z,100.00
2022-12-15T12:13:42.354Z,99.71
2022-12-15T12:16:55.205Z,100.00
2022-12-15T12:20:11.210Z,99.93
2022-12-15T12:23:21.493Z,99.85
2022-12-15T12:26:29.452Z,100.00
2022-12-15T12:29:44.010Z,100.00
2022-12-15T12:33:23.335Z,100.00
2022-12-15T12:36:26.135Z,100.00
2022-12-15T12:39:29.820Z,100.00
2022-12-15T12:42:43.891Z,100.00
2022-12-15T12:45:56.305Z,100.00
2022-12-15T12:49:27.073Z,100.00
2022-12-15T12:52:32.634Z,100.00
2022-12-15T12:55:42.493Z,100.00
2022-12-15T12:58:45.578Z,100.00
2022-12-15T13:01:51.868Z,100.00
2022-12-15T13:04:57.649Z,100.00
2022-12-15T13:08:06.431Z,100.00
2022-12-15T13:11:48.953Z,100.00
2022-12-15T13:14:53.841Z,100.00
2022-12-15T13:18:06.657Z,100.00
2022-12-15T13:21:41.672Z,100.00
2022-12-15T13:24:50.397Z,100.00
2022-12-15T13:27:57.879Z,100.00
2022-12-15T13:31:19.250Z,100.00
2022-12-15T13:34:24.505Z,100.00
2022-12-15T13:37:54.160Z,100.00
2022-12-15T13:40:56.921Z,100.00
2022-12-15T13:44:00.703Z,100.00
2022-12-15T13:47:13.708Z,100.00
2022-12-15T13:50:30.837Z,100.00
2022-12-15T13:53:44.968Z,100.00
2022-12-15T13:57:10.106Z,100.00
2022-12-15T14:00:19.195Z,100.00
2022-12-15T14:03:22.750Z,100.00
2022-12-15T14:06:28.778Z,100.00
2022-12-15T14:09:34.553Z,100.00
2022-12-15T14:12:39.726Z,100.00
2022-12-15T14:15:45.288Z,100.00
2022-12-15T14:19:10.960Z,100.00
2022-12-15T14:22:29.768Z,100.00
2022-12-15T14:25:33.917Z,100.00
2022-12-15T14:28:38.779Z,100.00
2022-12-15T14:31:41.494Z,100.00
2022-12-15T14:34:45.105Z,100.00
2022-12-15T14:37:56.223Z,100.00
2022-12-15T14:41:02.178Z,100.00
2022-12-15T14:44:38.365Z,100.00
2022-12-15T14:47:41.821Z,100.00
2022-12-15T14:50:48.334Z,100.00
2022-12-15T14:53:53.090Z,100.00
2022-12-15T14:57:01.536Z,100.00
2022-12-15T15:00:49.935Z,100.00
2022-12-15T15:04:01.575Z,100.00
2022-12-15T15:07:16.679Z,100.00
2022-12-15T15:10:29.185Z,100.00
2022-12-15T15:13:40.118Z,100.00
2022-12-15T15:16:43.818Z,100.00
2022-12-15T15:19:50.112Z,100.00
2022-12-15T15:23:22.430Z,100.00
2022-12-15T15:26:26.327Z,100.00
2022-12-15T15:29:36.348Z,100.00
2022-12-15T15:32:58.767Z,100.00
2022-12-15T15:36:02.404Z,100.00
2022-12-15T15:39:15.685Z,100.00
2022-12-15T15:42:19.931Z,100.00
2022-12-15T15:45:22.909Z,100.00
2022-12-15T15:48:27.610Z,100.00
2022-12-15T15:51:31.513Z,100.00
2022-12-15T15:54:36.373Z,100.00
2022-12-15T15:57:39.137Z,100.00
2022-12-15T16:00:41.759Z,100.00
2022-12-15T16:03:44.560Z,100.00
2022-12-15T16:06:47.958Z,100.00
2022-12-15T16:09:52.213Z,100.00
2022-12-15T16:12:56.051Z,100.00
2022-12-15T16:15:59.071Z,100.00
2022-12-15T16:19:01.746Z,100.00
2022-12-15T16:22:04.548Z,100.00
2022-12-15T16:25:14.366Z,100.00
2022-12-15T16:28:20.495Z,100.00
2022-12-15T16:31:41.296Z,100.00
2022-12-15T16:34:44.608Z,100.00
2022-12-15T16:37:47.277Z,100.00
2022-12-15T16:40:50.389Z,100.00
2022-12-15T16:43:52.887Z,100.00
2022-12-15T16:46:55.848Z,100.00
2022-12-15T16:49:58.519Z,100.00
2022-12-15T16:53:01.559Z,100.00
2022-12-15T16:56:06.339Z,100.00
2022-12-15T16:59:36.357Z,100.00
2022-12-15T17:02:40.134Z,100.00
2022-12-15T17:05:46.396Z,100.00
2022-12-15T17:08:51.909Z,100.00
2022-12-15T17:11:58.086Z,100.00
2022-12-15T17:15:02.442Z,100.00
2022-12-15T17:18:05.929Z,100.00
2022-12-15T17:21:14.121Z,100.00
2022-12-15T17:24:18.996Z,100.00
2022-12-15T17:27:28.185Z,100.00
2022-12-15T17:30:32.918Z,100.00
2022-12-15T17:33:36.226Z,100.00
2022-12-15T17:36:39.177Z,100.00
2022-12-15T17:39:44.876Z,100.00
2022-12-15T17:42:48.205Z,100.00
2022-12-15T17:45:50.955Z,100.00
2022-12-15T17:48:53.939Z,100.00
2022-12-15T17:51:57.105Z,100.00
2022-12-15T17:55:00.433Z,100.00
2022-12-15T17:58:09.544Z,100.00
2022-12-15T18:01:13.504Z,100.00
2022-12-15T18:04:16.361Z,100.00
2022-12-15T18:07:23.201Z,100.00
2022-12-15T18:10:33.220Z,100.00
2022-12-15T18:13:35.892Z,100.00
2022-12-15T18:16:38.786Z,100.00
2022-12-15T18:19:41.304Z,100.00
2022-12-15T18:22:44.315Z,100.00
2022-12-15T18:25:46.869Z,100.00
2022-12-15T18:28:49.771Z,100.00
2022-12-15T18:31:52.555Z,100.00
2022-12-15T18:34:56.289Z,100.00
2022-12-15T18:37:58.767Z,100.00
2022-12-15T18:41:01.783Z,100.00
2022-12-15T18:44:04.858Z,100.00
2022-12-15T18:47:16.340Z,100.00
2022-12-15T18:50:22.812Z,100.00
2022-12-15T18:53:29.122Z,100.00
2022-12-15T18:56:31.891Z,100.00
2022-12-15T18:59:34.790Z,100.00
2022-12-15T19:02:37.680Z,100.00
2022-12-15T19:05:41.829Z,100.00
2022-12-15T19:08:44.634Z,100.00
2022-12-15T19:12:07.599Z,100.00
2022-12-15T19:15:18.480Z,100.00
2022-12-15T19:18:42.597Z,100.00
2022-12-15T19:22:04.208Z,100.00
2022-12-15T19:25:07.377Z,100.00
2022-12-15T19:28:21.194Z,100.00
2022-12-15T19:31:24.434Z,100.00
2022-12-15T19:34:27.211Z,100.00
2022-12-15T19:37:31.233Z,100.00
2022-12-15T19:40:35.259Z,100.00
2022-12-15T19:43:38.162Z,100.00
2022-12-15T19:46:42.325Z,100.00
2022-12-15T19:49:45.323Z,100.00
2022-12-15T19:52:50.917Z,100.00
2022-12-15T19:55:56.037Z,100.00
2022-12-15T19:58:58.740Z,100.00
2022-12-15T20:02:01.853Z,100.00
2022-12-15T20:05:05.457Z,100.00
2022-12-15T20:08:11.609Z,100.00
2022-12-15T20:11:23.595Z,100.00
2022-12-15T20:14:26.205Z,100.00
2022-12-15T20:17:29.145Z,100.00
2022-12-15T20:20:31.794Z,100.00
2022-12-15T20:23:35.527Z,100.00
2022-12-15T20:26:39.427Z,100.00
2022-12-15T20:29:42.596Z,100.00
2022-12-15T20:32:45.552Z,100.00
2022-12-15T20:35:49.508Z,100.00
2022-12-15T20:38:52.680Z,100.00
2022-12-15T20:41:56.668Z,100.00
2022-12-15T20:44:59.192Z,100.00
2022-12-15T20:48:02.608Z,100.00
2022-12-15T20:51:09.631Z,100.00
2022-12-15T20:54:15.699Z,100.00
2022-12-15T20:57:18.604Z,100.00
2022-12-15T21:00:22.095Z,100.00
2022-12-15T21:03:41.015Z,100.00
2022-12-15T21:06:44.420Z,100.00
2022-12-15T21:09:47.645Z,100.00
2022-12-15T21:12:51.749Z,100.00
2022-12-15T21:15:54.556Z,100.00
2022-12-15T21:19:19.159Z,100.00
2022-12-15T21:22:25.581Z,100.00
2022-12-15T21:25:29.179Z,100.00
2022-12-15T21:28:32.133Z,100.00
2022-12-15T21:31:35.400Z,100.00
2022-12-15T21:34:38.126Z,100.00
2022-12-15T21:37:42.333Z,100.00
2022-12-15T21:40:44.828Z,100.00
2022-12-15T21:43:48.426Z,100.00
2022-12-15T21:46:50.985Z,100.00
2022-12-15T21:49:55.021Z,100.00
2022-12-15T21:52:57.702Z,100.00
2022-12-15T21:56:01.616Z,100.00
2022-12-15T21:59:11.398Z,100.00
2022-12-15T22:02:23.205Z,100.00
2022-12-15T22:05:32.562Z,100.00
2022-12-15T22:08:35.789Z,100.00
2022-12-15T22:11:39.728Z,100.00
2022-12-15T22:14:42.448Z,100.00
2022-12-15T22:17:45.566Z,100.00
2022-12-15T22:20:50.059Z,100.00
2022-12-15T22:23:52.866Z,100.00
2022-12-15T22:26:55.417Z,100.00
2022-12-15T22:29:58.258Z,100.00
2022-12-15T22:33:00.871Z,100.00
2022-12-15T22:36:03.820Z,100.00
2022-12-15T22:39:10.854Z,100.00
2022-12-15T22:42:17.215Z,100.00
2022-12-15T22:45:21.323Z,100.00
2022-12-15T22:48:31.833Z,100.00
2022-12-15T22:51:35.110Z,100.00
2022-12-15T22:54:41.382Z,100.00
2022-12-15T22:58:01.787Z,100.00
2022-12-15T23:01:06.590Z,100.00
2022-12-15T23:04:09.060Z,100.00
2022-12-15T23:07:11.898Z,100.00
2022-12-15T23:10:34.358Z,100.00
2022-12-15T23:13:37.106Z,100.00
2022-12-15T23:16:39.689Z,100.00
2022-12-15T23:19:44.266Z,100.00
2022-12-15T23:22:47.275Z,100.00
2022-12-15T23:25:49.999Z,100.00
2022-12-15T23:28:53.832Z,100.00
2022-12-15T23:31:58.010Z,100.00
2022-12-15T23:35:00.932Z,100.00
2022-12-15T23:38:03.740Z,100.00
2022-12-15T23:41:06.881Z,100.00
2022-12-15T23:44:12.310Z,100.00
2022-12-15T23:47:14.920Z,100.00
2022-12-15T23:50:18.670Z,100.00
2022-12-15T23:53:21.128Z,100.00
2022-12-15T23:56:24.693Z,100.00
2022-12-15T23:59:27.262Z,100.00
